Time;durP1;ratioP1;P1;durP2;ratioP2;P2;SDS_P1;SDS_P2;PMS_P1;PMS_P2;Temp;Humidity;BMP_temperature;BMP_pressure;BME280_temperature;BME280_humidity;BME280_pressure;Samples;Min_cycle;Max_cycle;Signal;HPM_P1;HPM_P2
2022/11/07 00:01:51;;;;;;;0.00;0.00;;;;;;;10.00;100.00;99051.09;4927017;28;20035;-79
2022/11/07 00:04:19;;;;;;;2.08;0.80;;;;;;;9.92;100.00;99047.13;4943797;28;20058;-78
2022/11/07 00:06:45;;;;;;;0.00;0.00;;;;;;;9.91;100.00;99064.59;4949085;28;20070;-78
2022/11/07 00:09:13;;;;;;;0.00;0.00;;;;;;;9.92;100.00;99066.22;4964152;28;20034;-77
2022/11/07 00:11:39;;;;;;;0.22;0.17;;;;;;;9.95;100.00;99059.38;4924791;29;20031;-77
2022/11/07 00:14:09;;;;;;;0.00;0.00;;;;;;;10.11;100.00;99068.97;4930027;29;20031;-78
2022/11/07 00:16:45;;;;;;;0.00;0.00;;;;;;;10.20;100.00;99066.38;4958427;28;20027;-77
2022/11/07 00:19:13;;;;;;;0.00;0.00;;;;;;;10.27;100.00;99055.88;4952461;28;20377;-77
2022/11/07 00:21:39;;;;;;;0.00;0.00;;;;;;;10.36;100.00;99061.50;4948039;29;20032;-77
2022/11/07 00:24:13;;;;;;;0.00;0.00;;;;;;;10.41;100.00;99071.53;4955119;28;20027;-75
2022/11/07 00:26:39;;;;;;;0.08;0.05;;;;;;;10.51;100.00;99079.56;4930776;29;20038;-77
2022/11/07 00:29:04;;;;;;;0.00;0.00;;;;;;;10.42;100.00;99078.63;4938199;28;20496;-78
2022/11/07 00:31:30;;;;;;;0.00;0.00;;;;;;;10.48;100.00;99081.00;4930951;29;20055;-79
2022/11/07 00:33:56;;;;;;;0.00;0.00;;;;;;;10.50;100.00;99083.44;4929029;28;20035;-77
2022/11/07 00:36:25;;;;;;;10.50;0.25;;;;;;;10.40;100.00;99075.41;4944331;29;20043;-78
2022/11/07 00:39:05;;;;;;;0.00;0.00;;;;;;;10.51;100.00;99104.16;4965359;28;20034;-78
2022/11/07 00:41:33;;;;;;;7.57;0.25;;;;;;;10.53;100.00;99101.13;4925935;28;20046;-78
2022/11/07 00:43:58;;;;;;;0.65;0.43;;;;;;;10.55;100.00;99099.75;4955914;28;20429;-79
2022/11/07 00:46:24;;;;;;;0.00;0.00;;;;;;;10.46;100.00;99087.88;4961725;28;20043;-76
2022/11/07 00:48:50;;;;;;;0.00;0.00;;;;;;;10.45;100.00;99099.91;4945226;29;20007;-77
2022/11/07 00:51:18;;;;;;;0.00;0.00;;;;;;;10.52;100.00;99100.34;4908317;28;20035;-77
2022/11/07 00:53:45;;;;;;;0.00;0.00;;;;;;;10.45;100.00;99102.63;4962246;28;20079;-79
2022/11/07 00:56:32;;;;;;;0.00;0.00;;;;;;;10.51;100.00;99112.38;4949049;28;20042;-81
2022/11/07 00:59:13;;;;;;;;;;;;;;;;;;;;;
2022/11/07 01:01:41;;;;;;;0.00;0.00;;;;;;;10.60;100.00;99096.94;4961418;28;20139;-82
2022/11/07 01:07:08;;;;;;;0.00;0.00;;;;;;;10.72;100.00;99123.81;4960302;28;20030;-81
2022/11/07 01:09:34;;;;;;;0.00;0.00;;;;;;;10.80;100.00;99105.91;4947858;28;20099;-79
2022/11/07 01:12:07;;;;;;;0.00;0.00;;;;;;;10.88;100.00;99112.59;4965289;28;20038;-79
2022/11/07 01:14:56;;;;;;;0.00;0.00;;;;;;;10.83;100.00;99111.59;4951449;28;20019;-80
2022/11/07 01:17:45;;;;;;;0.30;0.30;;;;;;;10.75;100.00;99108.72;4940461;28;20043;-78
2022/11/07 01:20:13;;;;;;;0.00;0.00;;;;;;;10.68;100.00;99102.84;4942037;28;20029;-79
2022/11/07 01:22:38;;;;;;;0.00;0.00;;;;;;;10.56;100.00;99086.91;4928091;28;20059;-79
2022/11/07 01:25:14;;;;;;;0.00;0.00;;;;;;;10.50;100.00;99110.78;4961813;28;20032;-78
2022/11/07 01:27:41;;;;;;;0.00;0.00;;;;;;;10.45;100.00;99099.91;4946892;29;20053;-78
2022/11/07 01:30:15;;;;;;;0.00;0.00;;;;;;;10.46;100.00;99101.53;4934981;29;20027;-79
2022/11/07 01:32:44;;;;;;;0.30;0.30;;;;;;;10.42;100.00;99105.97;4951662;28;20067;-78
2022/11/07 01:35:09;;;;;;;0.00;0.00;;;;;;;10.45;100.00;99121.75;4951027;28;20015;-78
2022/11/07 01:37:35;;;;;;;0.00;0.00;;;;;;;10.40;100.00;99113.66;4939295;28;20015;-79
2022/11/07 01:40:00;;;;;;;0.00;0.00;;;;;;;10.37;100.00;99126.00;4929772;28;20035;-77
2022/11/07 01:42:26;;;;;;;0.00;0.00;;;;;;;10.37;100.00;99130.66;4943075;28;20047;-77
2022/11/07 01:44:56;;;;;;;0.00;0.00;;;;;;;10.36;100.00;99118.88;4946705;29;20035;-77
2022/11/07 01:47:27;;;;;;;0.17;0.17;;;;;;;10.36;100.00;99129.03;4949579;28;20031;-76
2022/11/07 01:49:53;;;;;;;0.00;0.00;;;;;;;10.35;100.00;99127.38;4947832;28;20030;-77
2022/11/07 01:52:30;;;;;;;0.00;0.00;;;;;;;10.29;100.00;99119.25;4925694;28;20039;-77
2022/11/07 01:55:16;;;;;;;0.00;0.00;;;;;;;10.34;100.00;99125.75;4961238;28;20050;-76
2022/11/07 02:00:34;;;;;;;0.00;0.00;;;;;;;10.43;100.00;99135.72;5049215;23;20046;-78
2022/11/07 02:03:24;;;;;;;0.00;0.00;;;;;;;10.43;100.00;99132.19;4911723;29;20107;-77
2022/11/07 02:06:05;;;;;;;0.08;0.08;;;;;;;10.51;100.00;99136.97;4936898;29;20056;-78
2022/11/07 02:08:35;;;;;;;0.00;0.00;;;;;;;10.58;100.00;99131.94;4925846;28;20015;-79
2022/11/07 02:11:12;;;;;;;0.00;0.00;;;;;;;10.59;100.00;99130.03;4919883;28;20056;-79
2022/11/07 02:13:47;;;;;;;0.00;0.00;;;;;;;10.52;100.00;99122.19;4927913;29;20016;-80
2022/11/07 02:16:12;;;;;;;0.00;0.00;;;;;;;10.53;100.00;99121.09;4932653;28;20016;-79
2022/11/07 02:19:12;;;;;;;0.00;0.00;;;;;;;10.58;100.00;99112.81;4929940;28;20044;-80
2022/11/07 02:22:11;;;;;;;0.00;0.00;;;;;;;10.60;100.00;99113.34;4913605;29;20520;-79
2022/11/07 02:24:42;;;;;;;0.00;0.00;;;;;;;10.62;100.00;99113.03;4928823;29;20070;-78
2022/11/07 02:27:13;;;;;;;0.75;0.75;;;;;;;10.61;100.00;99125.88;4927970;28;20127;-79
2022/11/07 02:29:44;;;;;;;0.00;0.00;;;;;;;10.70;100.00;99123.28;4911615;29;20044;-80
2022/11/07 02:32:13;;;;;;;0.00;0.00;;;;;;;10.70;100.00;99111.53;4917960;29;20019;-80
2022/11/07 02:34:38;;;;;;;0.00;0.00;;;;;;;10.73;100.00;99110.94;4904530;29;20024;-80
2022/11/07 02:37:23;;;;;;;0.00;0.00;;;;;;;10.76;100.00;99111.16;4933767;28;20046;-80
2022/11/07 02:40:21;;;;;;;0.00;0.00;;;;;;;10.85;100.00;99122.22;4939505;29;20028;-78
2022/11/07 02:42:49;;;;;;;0.00;0.00;;;;;;;10.82;100.00;99114.63;4912033;29;20031;-78
2022/11/07 02:45:22;;;;;;;0.00;0.00;;;;;;;10.96;100.00;99120.13;4927451;28;20035;-78
2022/11/07 02:47:48;;;;;;;0.00;0.00;;;;;;;10.98;100.00;99113.25;4929270;28;20031;-78
2022/11/07 02:50:17;;;;;;;0.38;0.38;;;;;;;11.03;100.00;99120.53;4930598;28;20036;-77
2022/11/07 02:52:45;;;;;;;2.03;0.93;;;;;;;11.11;100.00;99121.75;4909109;29;20038;-78
2022/11/07 02:55:23;;;;;;;0.00;0.00;;;;;;;11.17;100.00;99126.06;4927869;28;20050;-77
2022/11/07 02:57:48;;;;;;;0.00;0.00;;;;;;;11.17;100.00;99115.91;4908739;29;20028;-78
2022/11/07 03:00:26;;;;;;;0.00;0.00;;;;;;;11.15;100.00;99111.84;4913807;28;20038;-78
2022/11/07 03:02:52;;;;;;;0.00;0.00;;;;;;;11.22;100.00;99134.16;4920272;29;20046;-77
2022/11/07 03:05:19;;;;;;;0.00;0.00;;;;;;;11.27;100.00;99128.59;4913456;29;20032;-77
2022/11/07 03:07:46;;;;;;;31.88;1.65;;;;;;;11.30;100.00;99136.19;4923577;29;20043;-77
2022/11/07 03:10:13;;;;;;;0.00;0.00;;;;;;;11.32;100.00;99138.63;4910065;29;20462;-77
2022/11/07 03:12:38;;;;;;;0.00;0.00;;;;;;;11.29;100.00;99142.78;4925905;28;20078;-78
2022/11/07 03:15:09;;;;;;;0.20;0.20;;;;;;;11.32;100.00;99130.41;4909806;29;20043;-78
2022/11/07 03:17:37;;;;;;;0.00;0.00;;;;;;;11.42;100.00;99135.69;4934076;29;20043;-78
2022/11/07 03:20:06;;;;;;;2.72;0.43;;;;;;;11.45;100.00;99126.09;4914962;29;20032;-80
2022/11/07 03:22:51;;;;;;;0.00;0.00;;;;;;;11.42;100.00;99132.13;4914136;28;20031;-79
2022/11/07 03:25:16;;;;;;;;;;;;;;;11.44;100.00;99129.91;4913629;29;20016;-78
2022/11/07 03:27:49;;;;;;;0.55;0.20;;;;;;;11.39;100.00;99117.16;4910610;28;19938;-78
2022/11/07 03:30:18;;;;;;;0.00;0.00;;;;;;;11.45;100.00;99126.88;4926697;28;20046;-78
2022/11/07 03:32:44;;;;;;;0.60;0.03;;;;;;;11.47;100.00;99137.53;4927751;29;20135;-78
2022/11/07 03:35:12;;;;;;;0.00;0.00;;;;;;;11.45;100.00;99131.56;4931964;29;20087;-78
2022/11/07 03:37:46;;;;;;;0.00;0.00;;;;;;;11.49;100.00;99127.06;4917963;28;20031;-78
2022/11/07 03:40:15;;;;;;;0.00;0.00;;;;;;;11.48;100.00;99125.47;4935313;29;20020;-77
2022/11/07 03:42:42;;;;;;;0.00;0.00;;;;;;;11.49;100.00;99132.53;4924175;29;20103;-78
2022/11/07 03:45:14;;;;;;;0.00;0.00;;;;;;;11.46;100.00;99127.69;4925794;29;20066;-78
2022/11/07 03:47:43;;;;;;;0.00;0.00;;;;;;;11.49;100.00;99127.06;4921275;29;20958;-78
2022/11/07 03:50:14;;;;;;;0.00;0.00;;;;;;;11.47;100.00;99118.38;4916002;29;20084;-79
2022/11/07 03:52:45;;;;;;;0.00;0.00;;;;;;;11.41;100.00;99125.84;4921710;28;20074;-79
2022/11/07 03:55:14;;;;;;;1.73;1.63;;;;;;;11.39;100.00;99133.56;4927861;29;20631;-80
2022/11/07 03:57:41;;;;;;;0.00;0.00;;;;;;;11.44;100.00;99129.91;4948922;29;20032;-79
2022/11/07 04:00:08;;;;;;;0.00;0.00;;;;;;;11.42;100.00;99115.72;4914249;29;20506;-79
2022/11/07 04:02:36;;;;;;;0.00;0.00;;;;;;;11.42;100.00;99132.13;4927500;29;20044;-79
2022/11/07 04:05:03;;;;;;;0.00;0.00;;;;;;;11.37;100.00;99108.41;4906222;29;20019;-79
2022/11/07 04:07:29;;;;;;;0.10;0.10;;;;;;;11.31;100.00;99124.13;4894768;29;20028;-79
2022/11/07 04:09:57;;;;;;;0.00;0.00;;;;;;;11.30;100.00;99117.03;4937390;28;20045;-79
2022/11/07 04:17:53;;;;;;;0.00;0.00;;;;;;;11.30;100.00;99114.31;4938506;29;20039;-76
2022/11/07 04:20:19;;;;;;;4.18;1.55;;;;;;;11.34;100.00;99107.09;4944531;29;20035;-78
2022/11/07 04:22:47;;;;;;;0.00;0.00;;;;;;;11.42;100.00;99112.97;4913571;29;20287;-77
2022/11/07 04:25:15;;;;;;;0.00;0.00;;;;;;;11.43;100.00;99112.66;4907208;29;20122;-76
2022/11/07 04:27:43;;;;;;;0.00;0.00;;;;;;;11.48;100.00;99109.03;4913087;29;20419;-76
2022/11/07 04:30:26;;;;;;;0.00;0.00;;;;;;;11.56;100.00;99122.00;4928546;29;20027;-76
2022/11/07 04:33:02;;;;;;;0.00;0.00;;;;;;;11.61;100.00;99113.69;4918430;29;20028;-75
2022/11/07 04:35:36;;;;;;;2.72;1.08;;;;;;;11.61;100.00;99113.69;4918580;29;20039;-76
2022/11/07 04:38:05;;;;;;;0.00;0.00;;;;;;;11.58;100.00;99114.31;4932925;29;20027;-77
2022/11/07 04:40:33;;;;;;;0.00;0.00;;;;;;;11.61;100.00;99112.88;4917618;29;20062;-77
2022/11/07 04:43:07;;;;;;;0.00;0.00;;;;;;;11.60;100.00;99100.31;4911689;29;20021;-75
2022/11/07 04:45:36;;;;;;;;;;;;;;;11.57;100.00;99107.22;4922831;29;20083;-75
2022/11/07 04:48:02;;;;;;;0.70;0.70;;;;;;;11.51;100.00;99113.91;4931092;29;19946;-77
2022/11/07 04:50:40;;;;;;;;;;;;;;;;;;;;;
2022/11/07 04:53:23;;;;;;;0.03;0.03;;;;;;;11.37;100.00;99091.19;4901319;29;20097;-77
2022/11/07 04:56:07;;;;;;;;;;;;;;;;;;;;;
2022/11/07 04:58:36;;;;;;;0.00;0.00;;;;;;;11.30;100.00;99091.59;4935350;29;20058;-77
2022/11/07 05:01:03;;;;;;;0.00;0.00;;;;;;;11.32;100.00;99106.59;4930885;29;20056;-78
2022/11/07 05:03:31;;;;;;;0.00;0.00;;;;;;;11.41;100.00;99109.44;4926838;29;20091;-78
2022/11/07 05:05:59;;;;;;;0.00;0.00;;;;;;;11.53;100.00;99097.97;4912157;29;20006;-77
2022/11/07 05:08:26;;;;;;;0.00;0.00;;;;;;;11.56;100.00;99105.56;4921590;29;20021;-79
2022/11/07 05:10:52;;;;;;;0.00;0.00;;;;;;;11.55;100.00;99112.19;4898692;29;20042;-78
2022/11/07 05:13:25;;;;;;;0.00;0.00;;;;;;;11.46;100.00;99100.31;4910678;29;20040;-78
2022/11/07 05:16:13;;;;;;;0.00;0.00;;;;;;;11.39;100.00;99106.19;4910786;29;20028;-78
2022/11/07 05:18:42;;;;;;;0.00;0.00;;;;;;;11.41;100.00;99108.63;4952621;28;20470;-77
2022/11/07 05:21:10;;;;;;;0.00;0.00;;;;;;;11.42;100.00;99105.59;4908519;29;20035;-77
2022/11/07 05:23:36;;;;;;;0.00;0.00;;;;;;;11.34;100.00;99101.63;4905568;29;20024;-77
2022/11/07 05:26:01;;;;;;;0.00;0.00;;;;;;;11.34;100.00;99096.13;4904348;29;20029;-79
2022/11/07 05:28:33;;;;;;;0.00;0.00;;;;;;;11.35;100.00;99089.56;4920540;29;20100;-78
2022/11/07 05:31:00;;;;;;;0.00;0.00;;;;;;;11.43;100.00;99090.78;4942756;28;20119;-78
2022/11/07 05:33:29;;;;;;;0.00;0.00;;;;;;;11.53;100.00;99095.25;4917579;29;20035;-79
2022/11/07 05:35:55;;;;;;;0.00;0.00;;;;;;;11.38;100.00;99098.31;4920631;29;20490;-79
2022/11/07 05:38:23;;;;;;;0.00;0.00;;;;;;;11.45;100.00;99090.50;4923993;29;20032;-78
2022/11/07 05:40:55;;;;;;;0.00;0.00;;;;;;;11.43;100.00;99089.97;4922336;29;20039;-78
2022/11/07 05:43:30;;;;;;;0.00;0.00;;;;;;;11.49;100.00;99100.53;4917180;29;20055;-79
2022/11/07 05:46:14;;;;;;;0.00;0.00;;;;;;;11.48;100.00;99084.41;4927511;29;20028;-78
2022/11/07 05:48:39;;;;;;;0.00;0.00;;;;;;;11.49;100.00;99095.06;4921769;29;20024;-79
2022/11/07 05:51:09;;;;;;;0.00;0.00;;;;;;;11.53;100.00;99095.25;4927982;29;20047;-76
2022/11/07 05:53:44;;;;;;;0.00;0.00;;;;;;;11.54;100.00;99091.41;4918579;29;20031;-79
2022/11/07 05:56:09;;;;;;;0.00;0.00;;;;;;;11.44;100.00;99081.44;4919322;29;20088;-80
2022/11/07 05:58:38;;;;;;;0.00;0.00;;;;;;;11.45;100.00;99098.72;4913151;29;20048;-79
2022/11/07 06:01:05;;;;;;;0.28;0.28;;;;;;;11.49;100.00;99110.66;4930232;29;20048;-78
2022/11/07 06:03:31;;;;;;;0.00;0.00;;;;;;;11.57;100.00;99095.47;4909578;29;20035;-79
2022/11/07 06:05:56;;;;;;;0.00;0.00;;;;;;;11.64;100.00;99096.66;4912842;29;20108;-78
2022/11/07 06:08:22;;;;;;;0.00;0.00;;;;;;;11.73;100.00;99098.69;4898992;29;20055;-78
2022/11/07 06:10:49;;;;;;;0.00;0.00;;;;;;;11.79;100.00;99091.97;4894467;29;20031;-78
2022/11/07 06:13:17;;;;;;;0.00;0.00;;;;;;;11.79;100.00;99097.47;4913892;29;20032;-79
2022/11/07 06:15:50;;;;;;;0.00;0.00;;;;;;;11.72;100.00;99097.06;4908080;29;20051;-78
2022/11/07 06:18:31;;;;;;;0.93;0.68;;;;;;;11.68;100.00;99081.25;4920143;29;20040;-79
2022/11/07 06:21:22;;;;;;;0.10;0.10;;;;;;;11.81;100.00;99097.94;4916617;29;20031;-79
2022/11/07 06:23:50;;;;;;;2.53;0.30;;;;;;;11.82;100.00;99105.06;4914371;29;20059;-78
2022/11/07 06:26:15;;;;;;;0.47;0.47;;;;;;;11.94;100.00;99110.84;4895116;28;20059;-77
2022/11/07 06:28:41;;;;;;;24.45;3.15;;;;;;;12.02;100.00;99121.09;4933514;29;20032;-78
2022/11/07 06:31:06;;;;;;;3.30;1.13;;;;;;;12.16;100.00;99112.84;4913983;29;20061;-78
2022/11/07 06:33:32;;;;;;;0.00;0.00;;;;;;;12.23;100.00;99104.97;4903190;29;20040;-78
2022/11/07 06:36:11;;;;;;;0.13;0.13;;;;;;;12.24;100.00;99119.50;4919986;29;20048;-79
2022/11/07 06:38:38;;;;;;;0.10;0.10;;;;;;;12.12;100.00;99105.53;4937079;29;20028;-78
2022/11/07 06:41:18;;;;;;;0.00;0.00;;;;;;;12.01;100.00;99103.00;4927336;29;20034;-78
2022/11/07 06:43:44;;;;;;;0.00;0.00;;;;;;;11.97;100.00;99093.81;4920109;29;20170;-78
2022/11/07 06:46:12;;;;;;;0.00;0.00;;;;;;;11.93;100.00;99103.75;4896070;29;20036;-77
2022/11/07 06:48:40;;;;;;;0.08;0.08;;;;;;;11.87;100.00;99099.47;4936889;29;20024;-80
2022/11/07 06:51:15;;;;;;;0.00;0.00;;;;;;;11.85;100.00;99093.47;4915216;29;20042;-77
2022/11/07 06:54:04;;;;;;;0.03;0.03;;;;;;;11.82;100.00;99107.78;4926410;29;20024;-79
2022/11/07 06:56:35;;;;;;;0.10;0.10;;;;;;;11.79;100.00;99103.75;4926275;29;20033;-79
2022/11/07 06:59:05;;;;;;;0.00;0.00;;;;;;;11.80;100.00;99115.53;4926946;29;20076;-80
2022/11/07 07:01:36;;;;;;;0.20;0.20;;;;;;;11.81;100.00;99150.00;4926450;29;20036;-79
2022/11/07 07:04:04;;;;;;;0.00;0.00;;;;;;;11.83;100.00;99109.44;4915464;29;20103;-77
2022/11/07 07:06:29;;;;;;;6.70;0.52;;;;;;;11.86;100.00;99108.81;4895064;29;20032;-76
2022/11/07 07:08:55;;;;;;;0.85;0.85;;;;;;;11.87;100.00;99115.88;4914070;29;20107;-76
2022/11/07 07:11:22;;;;;;;0.00;0.00;;;;;;;11.86;100.00;99119.75;4914939;29;20055;-77
2022/11/07 07:13:53;;;;;;;10.65;1.17;;;;;;;11.86;100.00;99120.56;4907017;29;20042;-79
2022/11/07 07:16:21;;;;;;;0.00;0.00;;;;;;;11.85;100.00;99112.66;4907760;29;20039;-79
2022/11/07 07:18:58;;;;;;;0.00;0.00;;;;;;;11.89;100.00;99113.69;4898978;29;20040;-77
2022/11/07 07:21:25;;;;;;;0.00;0.00;;;;;;;11.91;100.00;99127.06;4921802;29;20388;-77
2022/11/07 07:23:53;;;;;;;0.00;0.00;;;;;;;11.94;100.00;99132.75;4912093;29;20029;-77
2022/11/07 07:26:19;;;;;;;0.00;0.00;;;;;;;11.95;100.00;99134.38;4926640;29;20079;-77
2022/11/07 07:28:51;;;;;;;0.30;0.30;;;;;;;11.94;100.00;99126.47;4917274;29;20104;-78
2022/11/07 07:31:23;;;;;;;0.00;0.00;;;;;;;11.96;100.00;99125.06;4908295;29;20204;-76
2022/11/07 07:33:51;;;;;;;0.00;0.00;;;;;;;12.01;100.00;99126.88;4914169;29;20066;-77
2022/11/07 07:36:17;;;;;;;2.38;0.43;;;;;;;12.02;100.00;99123.81;4907845;29;20103;-78
2022/11/07 07:39:01;;;;;;;0.00;0.00;;;;;;;12.03;100.00;99136.41;4917549;29;20031;-77
2022/11/07 07:41:36;;;;;;;;;;;;;;;;;;;;;
2022/11/07 07:44:02;;;;;;;0.00;0.00;;;;;;;12.13;100.00;99145.53;4921702;29;20116;-78
2022/11/07 07:46:28;;;;;;;0.00;0.00;;;;;;;12.16;100.00;99150.38;4908310;29;20100;-78
2022/11/07 07:48:53;;;;;;;0.00;0.00;;;;;;;12.18;100.00;99137.19;4925238;28;20032;-78
2022/11/07 07:51:19;;;;;;;0.00;0.00;;;;;;;12.25;100.00;99148.56;4904616;29;20063;-77
2022/11/07 07:53:45;;;;;;;0.00;0.00;;;;;;;12.28;100.00;99147.09;4917148;29;20036;-77
2022/11/07 07:56:10;;;;;;;0.00;0.00;;;;;;;12.29;100.00;99152.28;4913739;29;20038;-77
2022/11/07 07:58:36;;;;;;;0.00;0.00;;;;;;;12.25;100.00;99145.81;4915876;29;20032;-77
2022/11/07 08:01:08;;;;;;;0.00;0.00;;;;;;;12.26;100.00;99147.41;4901622;29;20049;-75
2022/11/07 08:03:34;;;;;;;0.00;0.00;;;;;;;12.29;100.00;99135.81;4905987;29;20108;-75
2022/11/07 08:05:59;;;;;;;0.00;0.00;;;;;;;12.30;100.00;99151.16;4920089;29;20028;-75
2022/11/07 08:08:25;;;;;;;28.65;1.10;;;;;;;12.34;100.00;99182.31;4898600;29;20043;-74
2022/11/07 08:11:00;;;;;;;0.00;0.00;;;;;;;12.39;100.00;99159.47;4915071;29;20032;-76
2022/11/07 08:13:36;;;;;;;0.00;0.00;;;;;;;12.34;100.00;99152.16;4915950;29;20040;-76
2022/11/07 08:16:03;;;;;;;0.00;0.00;;;;;;;12.44;100.00;99161.28;4914827;29;20498;-75
2022/11/07 08:18:29;;;;;;;0.00;0.00;;;;;;;12.45;100.00;99151.94;4914512;29;20039;-76
2022/11/07 08:20:58;;;;;;;0.00;0.00;;;;;;;12.47;100.00;99166.13;4919777;29;20020;-77
2022/11/07 08:23:24;;;;;;;0.00;0.00;;;;;;;12.45;100.00;99157.41;4916136;29;20087;-76
2022/11/07 08:26:03;;;;;;;0.10;0.10;;;;;;;12.53;100.00;99153.97;4917240;29;20039;-76
2022/11/07 08:28:31;;;;;;;0.00;0.00;;;;;;;12.56;100.00;99153.34;4914753;29;20084;-77
2022/11/07 08:31:03;;;;;;;0.00;0.00;;;;;;;12.62;100.00;99162.25;4921286;29;20012;-77
2022/11/07 08:33:28;;;;;;;0.00;0.00;;;;;;;12.60;100.00;99154.34;4913981;29;20027;-77
2022/11/07 08:35:56;;;;;;;0.00;0.00;;;;;;;12.58;100.00;99156.56;4924139;29;20032;-75
2022/11/07 08:38:55;;;;;;;0.00;0.00;;;;;;;12.59;100.00;99171.91;4919196;28;20036;-77
2022/11/07 08:41:30;;;;;;;0.00;0.00;;;;;;;12.60;100.00;99165.31;4918996;28;20051;-77
2022/11/07 08:43:58;;;;;;;0.00;0.00;;;;;;;12.65;100.00;99153.41;4922273;29;20431;-78
2022/11/07 08:46:23;;;;;;;0.95;0.95;;;;;;;12.67;100.00;99149.19;4893732;29;20024;-79
2022/11/07 08:48:51;;;;;;;0.00;0.00;;;;;;;12.68;100.00;99167.28;4922339;28;20028;-76
2022/11/07 08:51:16;;;;;;;0.17;0.17;;;;;;;12.68;100.00;99171.97;4922926;28;20043;-77
2022/11/07 08:54:25;;;;;;;;;;;;;;;;;;;;;
2022/11/07 08:59:33;;;;;;;0.00;0.00;;;;;;;12.77;100.00;99166.56;4909186;29;20091;-74
2022/11/07 09:01:59;;;;;;;0.00;0.00;;;;;;;12.82;100.00;99171.91;4924817;28;20048;-75
2022/11/07 09:04:35;;;;;;;;;;;;;;;;;;;;;
2022/11/07 09:07:14;;;;;;;;;;;;;;;;;;;;;
2022/11/07 09:09:50;;;;;;;0.00;0.00;;;;;;;12.78;100.00;99170.94;4929734;29;20036;-76
2022/11/07 09:12:30;;;;;;;;;;;;;;;;;;;;;
2022/11/07 09:14:56;;;;;;;0.00;0.00;;;;;;;12.81;100.00;99175.78;4932339;29;20047;-77
2022/11/07 09:17:26;;;;;;;0.00;0.00;;;;;;;12.80;100.00;99168.66;4935609;28;20027;-75
2022/11/07 09:19:54;;;;;;;0.00;0.00;;;;;;;12.75;100.00;99173.16;4931452;29;20064;-76
2022/11/07 09:22:30;;;;;;;;;;;;;;;;;;;;;
2022/11/07 09:25:15;;;;;;;0.00;0.00;;;;;;;12.79;100.00;99186.25;4926983;29;20109;-77
2022/11/07 09:27:44;;;;;;;0.00;0.00;;;;;;;12.77;100.00;99169.31;4897583;29;20036;-75
2022/11/07 09:30:12;;;;;;;0.00;0.00;;;;;;;12.82;100.00;99178.22;4912799;29;20039;-75
2022/11/07 09:32:37;;;;;;;0.00;0.00;;;;;;;12.88;100.00;99184.41;4905421;29;20032;-75
2022/11/07 09:35:04;;;;;;;0.00;0.00;;;;;;;12.85;100.00;99188.56;4935854;29;20107;-74
2022/11/07 09:37:30;;;;;;;0.00;0.00;;;;;;;12.83;100.00;99190.00;4904453;29;20029;-73
2022/11/07 09:39:55;;;;;;;0.00;0.00;;;;;;;12.87;100.00;99196.47;4927891;29;20040;-75
2022/11/07 09:42:38;;;;;;;0.00;0.00;;;;;;;12.88;100.00;99184.41;4919763;29;20043;-75
2022/11/07 09:45:03;;;;;;;0.00;0.00;;;;;;;12.78;100.00;99181.91;4925464;29;20031;-75
2022/11/07 09:47:43;;;;;;;0.00;0.00;;;;;;;12.75;100.00;99186.06;4902690;29;20036;-76
2022/11/07 09:50:40;;;;;;;0.00;0.00;;;;;;;12.77;100.00;99180.28;4914874;29;20042;-74
2022/11/07 09:53:38;;;;;;;;;;;;;;;;;;;;;
2022/11/07 09:56:12;;;;;;;0.00;0.00;;;;;;;12.83;100.00;99203.72;4926733;29;20103;-74
2022/11/07 09:58:42;;;;;;;0.00;0.00;;;;;;;12.90;100.00;99201.34;4917614;29;20028;-74
2022/11/07 10:01:29;;;;;;;0.00;0.00;;;;;;;12.90;100.00;99206.84;4921594;29;20055;-76
2022/11/07 10:03:56;;;;;;;0.00;0.00;;;;;;;12.96;100.00;99213.81;4931148;29;20087;-74
2022/11/07 10:06:48;;;;;;;0.00;0.00;;;;;;;12.99;100.00;99188.50;4919402;29;20099;-75
2022/11/07 10:09:49;;;;;;;0.00;0.00;;;;;;;13.02;100.00;99195.28;4921851;29;20039;-76
2022/11/07 10:12:44;;;;;;;0.00;0.00;;;;;;;12.92;100.00;99193.59;4900159;29;20044;-76
2022/11/07 10:15:15;;;;;;;0.00;0.00;;;;;;;13.01;100.00;99201.91;4923624;29;20142;-75
2022/11/07 10:18:25;;;;;;;;;;;;;;;;;;;;;
2022/11/07 10:21:10;;;;;;;0.00;0.00;;;;;;;13.26;100.00;99197.72;4865632;29;20125;-75
2022/11/07 10:24:08;;;;;;;0.00;0.00;;;;;;;13.54;100.00;99200.31;4873989;29;20116;-76
2022/11/07 10:26:35;;;;;;;0.00;0.00;;;;;;;13.56;100.00;99200.81;4926272;28;20024;-76
2022/11/07 10:43:33;;;;;;;;;;;;;;;;;;;;;
2022/11/07 11:18:04;;;;;;;;;;;;;;;14.15;100.00;99214.28;4951639;29;20036;-78
2022/11/07 11:21:17;;;;;;;0.00;0.00;;;;;;;14.02;100.00;99198.72;4965716;28;19978;-79
2022/11/07 11:24:42;;;;;;;;;;;;;;;;;;;;;
2022/11/07 11:27:52;;;;;;;;;;;;;;;;;;;;;
2022/11/07 11:30:53;;;;;;;;;;;;;;;;;;;;;
2022/11/07 11:33:41;;;;;;;0.00;0.00;;;;;;;14.49;100.00;99209.97;4951851;28;20046;-78
2022/11/07 11:36:59;;;;;;;;;;;;;;;;;;;;;
2022/11/07 11:40:05;;;;;;;;;;;;;;;;;;;;;
2022/11/07 11:43:14;;;;;;;0.00;0.00;;;;;;;14.86;100.00;99194.00;4954752;28;20043;-78
2022/11/07 11:46:05;;;;;;;;;;;;;;;;;;;;;
2022/11/07 11:56:16;;;;;;;0.00;0.00;;;;;;;14.81;100.00;99177.66;4940669;28;20094;-79
2022/11/07 11:59:23;;;;;;;;;;;;;;;;;;;;;
2022/11/07 12:02:35;;;;;;;0.00;0.00;;;;;;;14.80;100.00;99163.06;4971019;28;20071;-78
2022/11/07 12:05:46;;;;;;;0.30;0.30;;;;;;;14.96;100.00;99163.38;4958185;28;20419;-78
2022/11/07 12:12:15;;;;;;;0.00;0.00;;;;;;;14.63;100.00;99150.16;4958719;28;20023;-78
2022/11/07 12:15:13;;;;;;;;;;;;;;;;;;;;;
2022/11/07 12:21:37;;;;;;;0.40;0.40;;;;;;;14.23;100.00;99141.19;4946872;28;20075;-78
2022/11/07 12:25:03;;;;;;;;;;;;;;;;;;;;;
2022/11/07 12:28:15;;;;;;;;;;;;;;;;;;;;;
2022/11/07 12:31:42;;;;;;;;;;;;;;;;;;;;;
2022/11/07 12:34:21;;;;;;;19.48;2.83;;;;;;;13.60;100.00;99131.19;4891476;29;20085;-77
2022/11/07 12:37:30;;;;;;;;;;;;;;;;;;;;;
2022/11/07 12:40:29;;;;;;;13.90;1.95;;;;;;;13.69;100.00;99144.16;4896270;29;20053;-78
2022/11/07 12:43:46;;;;;;;0.00;0.00;;;;;;;13.64;100.00;99147.84;4928065;28;20045;-79
2022/11/07 12:46:51;;;;;;;;;;;;;;;;;;;;;
2022/11/07 12:49:42;;;;;;;0.00;0.00;;;;;;;13.54;100.00;99142.66;4962898;28;20071;-78
2022/11/07 12:52:33;;;;;;;0.00;0.00;;;;;;;13.47;100.00;99150.53;4951247;28;20035;-80
2022/11/07 12:55:01;;;;;;;1.83;1.17;;;;;;;13.44;100.00;99177.47;4963250;28;20090;-79
2022/11/07 12:57:31;;;;;;;0.57;0.35;;;;;;;13.46;100.00;99135.16;4977438;28;20030;-78
2022/11/07 13:30:16;;;;;;;4.75;0.95;;;;;;;13.36;100.00;99156.31;3167945;26;20050;-79
2022/11/07 13:33:15;;;;;;;;;;;;;;;;;;;;;
2022/11/07 13:36:01;;;;;;;0.00;0.00;;;;;;;13.47;100.00;99142.28;4996165;28;20006;-78
2022/11/07 13:41:49;;;;;;;;;;;;;;;;;;;;;
2022/11/07 13:44:22;;;;;;;0.00;0.00;;;;;;;13.75;100.00;99138.19;4976016;28;20054;-78
2022/11/07 13:47:24;;;;;;;;;;;;;;;;;;;;;
2022/11/07 13:49:54;;;;;;;0.08;0.08;;;;;;;13.87;100.00;99129.34;4965654;28;20050;-78
2022/11/07 13:52:52;;;;;;;4.65;1.98;;;;;;;13.95;100.00;99125.00;4976974;28;20033;-77
2022/11/07 13:55:24;;;;;;;0.00;0.00;;;;;;;14.06;100.00;99104.31;4976680;28;20079;-77
2022/11/07 13:57:57;;;;;;;0.10;0.10;;;;;;;14.17;100.00;99115.00;4977385;28;20030;-77
2022/11/07 14:00:36;;;;;;;0.00;0.00;;;;;;;14.14;100.00;99111.75;4976361;28;20022;-76
2022/11/07 14:03:25;;;;;;;0.43;0.43;;;;;;;13.73;100.00;99107.47;4974584;28;20050;-73
2022/11/07 14:05:51;;;;;;;3.28;1.23;;;;;;;13.43;100.00;99126.47;4986372;28;20023;-76
2022/11/07 14:08:33;;;;;;;1.60;0.47;;;;;;;13.27;100.00;99122.44;4978246;28;20081;-76
2022/11/07 14:11:02;;;;;;;2.03;1.85;;;;;;;13.27;100.00;99114.22;4968884;28;20034;-75
2022/11/07 14:14:30;;;;;;;;;;;;;;;;;;;;;
2022/11/07 14:17:16;;;;;;;1.48;1.10;;;;;;;13.30;100.00;99121.81;4991782;28;20045;-76
2022/11/07 14:20:29;;;;;;;1.20;0.25;;;;;;;13.57;100.00;99114.53;4980422;28;20031;-76
2022/11/07 14:23:31;;;;;;;0.15;0.15;;;;;;;13.94;100.00;99112.38;4985242;28;20050;-78
2022/11/07 14:26:34;;;;;;;5.07;1.95;;;;;;;14.03;100.00;99106.88;4978932;28;20023;-76
2022/11/07 14:29:24;;;;;;;0.60;0.60;;;;;;;14.13;100.00;99145.06;4992755;28;20046;-76
2022/11/07 14:32:08;;;;;;;0.65;0.50;;;;;;;14.12;100.00;99097.53;4981931;28;20027;-77
2022/11/07 14:34:47;;;;;;;0.10;0.10;;;;;;;13.95;100.00;99130.50;4981649;28;20117;-78